Time;durP1;ratioP1;P1;durP2;ratioP2;P2;SDS_P1;SDS_P2;PMS_P1;PMS_P2;Temp;Humidity;BMP_temperature;BMP_pressure;BME280_temperature;BME280_humidity;BME280_pressure;Samples;Min_cycle;Max_cycle;Signal;HPM_P1;HPM_P2
2022/11/30 00:00:17;;;;;;;68.33;38.90;;;4.90;99.90;;;;;;5029971;28;20700;-71
2022/11/30 00:02:43;;;;;;;73.97;38.40;;;4.90;99.90;;;;;;5027269;28;20207;-71
2022/11/30 00:05:09;;;;;;;72.27;37.33;;;4.90;99.90;;;;;;5024142;28;20224;-70
2022/11/30 00:07:34;;;;;;;70.87;38.90;;;4.90;99.90;;;;;;5030973;28;20219;-71
2022/11/30 00:10:00;;;;;;;70.37;37.30;;;4.80;99.90;;;;;;5024365;28;20741;-70
2022/11/30 00:12:27;;;;;;;72.23;38.90;;;4.80;99.90;;;;;;5024638;28;20234;-70
2022/11/30 00:14:53;;;;;;;76.40;38.97;;;4.90;99.90;;;;;;5027894;28;20242;-71
2022/11/30 00:17:19;;;;;;;81.63;39.97;;;4.90;99.90;;;;;;5030791;28;20242;-71
2022/11/30 00:19:44;;;;;;;70.70;38.70;;;4.90;99.90;;;;;;5024312;28;20227;-70
2022/11/30 00:22:10;;;;;;;68.57;35.57;;;4.90;99.90;;;;;;5029894;28;20230;-71
2022/11/30 00:24:36;;;;;;;71.47;36.43;;;4.90;99.90;;;;;;5023903;28;20262;-71
2022/11/30 00:27:01;;;;;;;73.07;37.70;;;4.80;99.90;;;;;;5028359;28;20659;-71
2022/11/30 00:29:27;;;;;;;68.90;36.03;;;4.80;99.90;;;;;;5027492;28;20258;-71
2022/11/30 00:31:52;;;;;;;69.67;37.23;;;4.80;99.90;;;;;;5023372;28;20211;-71
2022/11/30 00:34:18;;;;;;;68.43;37.50;;;4.80;99.90;;;;;;5028187;28;20947;-71
2022/11/30 00:36:43;;;;;;;70.47;38.23;;;4.90;99.90;;;;;;5025672;28;20220;-71
2022/11/30 00:39:09;;;;;;;67.50;36.57;;;4.90;99.90;;;;;;5022963;28;20187;-71
2022/11/30 00:41:35;;;;;;;69.13;37.20;;;4.90;99.90;;;;;;5030452;28;20183;-71
2022/11/30 00:44:00;;;;;;;70.23;37.60;;;4.90;99.90;;;;;;5023682;28;20222;-70
2022/11/30 00:46:26;;;;;;;67.33;37.70;;;4.80;99.90;;;;;;5024029;28;20645;-71
2022/11/30 00:48:51;;;;;;;70.73;38.77;;;4.90;99.90;;;;;;5025618;28;20585;-71
2022/11/30 00:51:18;;;;;;;70.00;35.97;;;4.80;99.90;;;;;;5026652;28;20245;-71
2022/11/30 00:53:43;;;;;;;76.93;38.80;;;4.90;99.90;;;;;;5027643;28;20208;-71
2022/11/30 00:56:09;;;;;;;77.73;39.67;;;4.80;99.90;;;;;;5025987;28;20263;-70
2022/11/30 00:58:35;;;;;;;68.63;37.07;;;4.80;99.90;;;;;;5023438;28;20213;-70
2022/11/30 01:01:01;;;;;;;69.10;37.10;;;4.90;99.90;;;;;;5026803;28;20217;-70
2022/11/30 01:03:27;;;;;;;71.10;36.90;;;4.80;99.90;;;;;;5026994;28;20209;-70
2022/11/30 01:05:52;;;;;;;69.67;38.20;;;4.80;99.90;;;;;;5021242;28;20215;-71
2022/11/30 01:08:18;;;;;;;74.13;38.17;;;4.80;99.90;;;;;;5028817;28;20207;-71
2022/11/30 01:10:44;;;;;;;75.00;36.70;;;4.80;99.90;;;;;;5023968;28;20235;-71
2022/11/30 01:13:13;;;;;;;72.53;38.73;;;4.80;99.90;;;;;;5029203;28;20218;-70
2022/11/30 01:15:41;;;;;;;71.23;37.00;;;4.90;99.90;;;;;;5027882;28;20215;-70
2022/11/30 01:18:07;;;;;;;72.93;36.13;;;4.80;99.90;;;;;;5023930;28;20181;-71
2022/11/30 01:20:32;;;;;;;76.33;38.53;;;4.80;99.90;;;;;;5024881;28;20222;-71
2022/11/30 01:22:58;;;;;;;73.50;38.30;;;4.80;99.90;;;;;;5025482;28;20215;-70
2022/11/30 01:25:24;;;;;;;76.40;39.43;;;4.80;99.90;;;;;;5024114;28;20226;-71
2022/11/30 01:27:50;;;;;;;69.93;37.10;;;4.80;99.90;;;;;;5028987;28;20624;-71
2022/11/30 01:30:16;;;;;;;78.60;40.40;;;4.80;99.90;;;;;;5025710;28;20294;-71
2022/11/30 01:32:41;;;;;;;71.37;38.53;;;4.80;99.90;;;;;;5024675;28;20220;-71
2022/11/30 01:35:07;;;;;;;72.13;37.60;;;4.80;99.90;;;;;;5024967;28;20658;-71
2022/11/30 01:37:33;;;;;;;79.83;39.80;;;4.80;99.90;;;;;;5028802;28;20215;-71
2022/11/30 01:39:59;;;;;;;71.67;39.23;;;4.80;99.90;;;;;;5020217;28;20216;-70
2022/11/30 01:42:25;;;;;;;76.33;40.33;;;4.80;99.90;;;;;;5027794;28;20186;-71
2022/11/30 01:44:50;;;;;;;78.83;39.77;;;4.80;99.90;;;;;;5023952;28;20270;-71
2022/11/30 01:47:19;;;;;;;70.67;38.93;;;4.80;99.90;;;;;;5025869;28;20265;-71
2022/11/30 01:49:50;;;;;;;73.10;38.77;;;4.80;99.90;;;;;;5025934;28;20269;-71
2022/11/30 01:52:24;;;;;;;71.67;38.77;;;4.70;99.90;;;;;;5023931;28;20744;-70
2022/11/30 01:55:15;;;;;;;72.87;38.27;;;4.70;99.90;;;;;;5025071;28;20301;-71
2022/11/30 01:57:46;;;;;;;70.43;39.30;;;4.70;99.90;;;;;;5022199;28;20208;-71
2022/11/30 02:00:14;;;;;;;75.00;39.43;;;4.70;99.90;;;;;;5025658;28;20171;-71
2022/11/30 02:03:03;;;;;;;81.43;42.37;;;4.70;99.90;;;;;;5029631;28;20183;-70
2022/11/30 02:05:29;;;;;;;69.20;38.57;;;4.80;99.90;;;;;;5019813;28;20272;-70
2022/11/30 02:07:54;;;;;;;76.17;39.83;;;4.70;99.90;;;;;;5027732;28;20614;-71
2022/11/30 02:10:32;;;;;;;73.50;39.53;;;4.70;99.90;;;;;;5024721;28;20257;-72
2022/11/30 02:13:10;;;;;;;78.23;39.60;;;4.60;99.90;;;;;;5021770;28;20220;-71
2022/11/30 02:16:17;;;;;;;80.07;40.30;;;4.60;99.90;;;;;;5028398;28;20238;-70
2022/11/30 02:18:54;;;;;;;72.07;39.03;;;4.70;99.90;;;;;;4999146;28;20762;-71
2022/11/30 02:21:40;;;;;;;72.00;37.60;;;4.70;99.90;;;;;;5028433;28;20183;-71
2022/11/30 02:24:33;;;;;;;74.83;38.90;;;4.60;99.90;;;;;;5024346;28;20711;-70
2022/11/30 02:27:13;;;;;;;79.10;41.30;;;4.70;99.90;;;;;;5040012;28;20220;-70
2022/11/30 02:29:46;;;;;;;72.73;40.03;;;4.60;99.90;;;;;;5027526;28;20218;-71
2022/11/30 02:32:59;;;;;;;73.10;40.60;;;4.60;99.90;;;;;;5025632;28;20285;-70
2022/11/30 02:35:33;;;;;;;76.50;40.17;;;4.60;99.90;;;;;;4977120;28;20928;-71
2022/11/30 02:38:01;;;;;;;75.77;39.83;;;4.60;99.90;;;;;;4958660;28;20773;-70
2022/11/30 02:40:26;;;;;;;77.00;39.87;;;4.60;99.90;;;;;;5003802;28;20239;-70
2022/11/30 02:42:54;;;;;;;71.90;39.57;;;4.60;99.90;;;;;;5026364;28;20617;-70
2022/11/30 02:45:41;;;;;;;78.17;41.53;;;4.60;99.90;;;;;;5026519;28;20568;-71
2022/11/30 02:48:08;;;;;;;76.53;40.87;;;4.60;99.90;;;;;;5039013;28;20610;-71
2022/11/30 02:50:46;;;;;;;84.63;42.73;;;4.60;99.90;;;;;;5026186;28;20777;-71
2022/11/30 02:53:12;;;;;;;77.10;40.27;;;4.60;99.90;;;;;;5020822;28;20211;-71
2022/11/30 02:55:38;;;;;;;75.43;39.63;;;4.60;99.90;;;;;;5027847;28;20569;-70
2022/11/30 02:58:04;;;;;;;70.60;38.53;;;4.60;99.90;;;;;;5027148;28;20221;-71
2022/11/30 03:00:30;;;;;;;77.37;40.67;;;4.70;99.90;;;;;;5024942;28;20695;-71
2022/11/30 03:02:55;;;;;;;77.57;40.73;;;4.70;99.90;;;;;;5030934;28;20270;-71
2022/11/30 03:05:21;;;;;;;79.00;40.37;;;4.70;99.90;;;;;;5030161;28;20215;-71
2022/11/30 03:07:47;;;;;;;69.23;37.83;;;4.70;99.90;;;;;;5026374;28;20290;-70
2022/11/30 03:10:13;;;;;;;71.63;40.00;;;4.60;99.90;;;;;;5029197;28;20781;-71
2022/11/30 03:12:38;;;;;;;75.47;39.63;;;4.60;99.90;;;;;;5026534;28;20213;-71
2022/11/30 03:15:05;;;;;;;71.17;38.57;;;4.50;99.90;;;;;;5021155;28;20206;-70
2022/11/30 03:17:30;;;;;;;75.77;39.23;;;4.60;99.90;;;;;;5025546;28;20366;-71
2022/11/30 03:19:56;;;;;;;81.50;39.60;;;4.70;99.90;;;;;;5026112;28;20293;-71
2022/11/30 03:22:22;;;;;;;72.87;39.07;;;4.60;99.90;;;;;;5021665;28;20858;-71
2022/11/30 03:24:47;;;;;;;73.13;39.20;;;4.60;99.90;;;;;;5023021;28;20227;-70
2022/11/30 03:27:13;;;;;;;72.73;38.93;;;4.60;99.90;;;;;;5022161;28;20186;-71
2022/11/30 03:29:39;;;;;;;78.77;39.00;;;4.60;99.90;;;;;;5022155;28;20171;-71
2022/11/30 03:32:05;;;;;;;72.80;39.60;;;4.60;99.90;;;;;;5025319;28;20199;-70
2022/11/30 03:34:30;;;;;;;75.90;39.67;;;4.60;99.90;;;;;;5021579;28;20219;-70
2022/11/30 03:36:56;;;;;;;70.70;37.83;;;4.60;99.90;;;;;;5023165;28;20298;-69
2022/11/30 03:39:23;;;;;;;67.77;37.27;;;4.70;99.90;;;;;;5023448;28;20172;-70
2022/11/30 03:41:49;;;;;;;75.60;38.00;;;4.70;99.90;;;;;;5021633;28;20187;-69
2022/11/30 03:44:15;;;;;;;75.53;37.93;;;4.60;99.90;;;;;;5021425;28;20216;-69
2022/11/30 03:46:41;;;;;;;67.20;36.77;;;4.60;99.90;;;;;;5026918;28;20700;-70
2022/11/30 03:49:07;;;;;;;74.80;39.57;;;4.60;99.90;;;;;;5020731;28;20285;-70
2022/11/30 03:51:32;;;;;;;70.00;38.47;;;4.60;99.90;;;;;;5025952;28;20214;-70
2022/11/30 03:53:58;;;;;;;69.50;37.57;;;4.60;99.90;;;;;;5019996;28;20205;-69
2022/11/30 03:56:23;;;;;;;67.87;37.50;;;4.60;99.90;;;;;;5021236;28;20343;-70
2022/11/30 03:58:50;;;;;;;74.07;38.00;;;4.60;99.90;;;;;;5022344;28;20689;-70
2022/11/30 04:01:21;;;;;;;69.20;37.23;;;4.60;99.90;;;;;;5025797;28;20291;-70
2022/11/30 04:03:47;;;;;;;67.30;37.20;;;4.60;99.90;;;;;;5020764;28;20219;-70
2022/11/30 04:06:13;;;;;;;76.37;39.23;;;4.50;99.90;;;;;;5021130;28;20212;-70
2022/11/30 04:08:39;;;;;;;72.97;39.47;;;4.50;99.90;;;;;;5021493;28;20253;-69
2022/11/30 04:11:05;;;;;;;70.17;36.77;;;4.60;99.90;;;;;;5018861;28;20218;-69
2022/11/30 04:13:32;;;;;;;78.53;39.07;;;4.60;99.90;;;;;;5022202;28;20640;-70
2022/11/30 04:15:58;;;;;;;72.27;38.30;;;4.50;99.90;;;;;;5027939;28;20234;-70
2022/11/30 04:18:25;;;;;;;73.73;38.53;;;4.60;99.90;;;;;;5022608;28;20674;-70
2022/11/30 04:20:56;;;;;;;76.53;40.10;;;4.50;99.90;;;;;;5019872;28;20203;-70
2022/11/30 04:23:23;;;;;;;77.67;40.03;;;4.50;99.90;;;;;;5021383;28;20209;-70
2022/11/30 04:25:49;;;;;;;72.07;38.27;;;4.60;99.90;;;;;;5022406;28;20220;-69
2022/11/30 04:28:15;;;;;;;71.90;36.40;;;4.60;99.90;;;;;;5025694;28;20258;-70
2022/11/30 04:30:42;;;;;;;73.67;38.90;;;4.60;99.90;;;;;;5023307;28;20288;-69
2022/11/30 04:33:07;;;;;;;78.43;40.20;;;4.60;99.90;;;;;;5026118;28;20180;-69
2022/11/30 04:35:39;;;;;;;76.80;39.73;;;4.50;99.90;;;;;;5021326;28;20243;-70
2022/11/30 04:38:04;;;;;;;71.93;38.10;;;4.50;99.90;;;;;;5020352;28;20222;-70
2022/11/30 04:40:30;;;;;;;77.70;39.87;;;4.50;99.90;;;;;;5023367;28;20279;-72
2022/11/30 04:42:55;;;;;;;73.90;39.07;;;4.60;99.90;;;;;;5025873;28;20219;-71
2022/11/30 04:45:21;;;;;;;71.97;37.10;;;4.50;99.90;;;;;;5023057;28;20229;-72
2022/11/30 04:47:46;;;;;;;74.77;38.67;;;4.40;99.90;;;;;;5025504;28;20650;-72
2022/11/30 04:50:12;;;;;;;73.40;37.63;;;4.40;99.90;;;;;;5019264;28;20691;-72
2022/11/30 04:52:38;;;;;;;77.70;39.37;;;4.40;99.90;;;;;;5022767;28;20211;-72
2022/11/30 04:55:04;;;;;;;70.53;37.47;;;4.40;99.90;;;;;;5018732;28;20223;-72
2022/11/30 04:57:30;;;;;;;77.43;39.87;;;4.50;99.90;;;;;;5021568;28;20706;-72
2022/11/30 04:59:56;;;;;;;69.57;37.70;;;4.50;99.90;;;;;;5018762;28;20318;-72
2022/11/30 05:02:21;;;;;;;81.38;48.95;;;4.50;99.90;;;;;;5018310;28;20888;-72
2022/11/30 05:04:47;;;;;;;70.10;39.70;;;4.50;99.90;;;;;;5021763;28;20813;-72
2022/11/30 05:07:12;;;;;;;69.83;37.90;;;4.50;99.90;;;;;;5020618;28;20226;-72
2022/11/30 05:09:38;;;;;;;73.47;38.87;;;4.50;99.90;;;;;;5018233;28;20209;-72
2022/11/30 05:12:04;;;;;;;76.70;38.90;;;4.50;99.90;;;;;;5018556;28;20677;-72
2022/11/30 05:14:29;;;;;;;75.03;39.27;;;4.40;99.90;;;;;;5022852;28;20212;-71
2022/11/30 05:16:55;;;;;;;75.10;38.20;;;4.40;99.90;;;;;;5023393;28;20225;-72
2022/11/30 05:19:21;;;;;;;79.17;39.87;;;4.40;99.90;;;;;;5020851;28;20765;-72
2022/11/30 05:21:46;;;;;;;72.20;37.33;;;4.40;99.90;;;;;;5018370;28;20212;-72
2022/11/30 05:24:12;;;;;;;74.87;37.10;;;4.40;99.90;;;;;;5027063;28;20736;-72
2022/11/30 05:26:38;;;;;;;75.63;38.83;;;4.40;99.90;;;;;;5025991;28;20699;-72
2022/11/30 05:29:04;;;;;;;71.67;37.60;;;4.50;99.90;;;;;;5027871;28;20214;-73
2022/11/30 05:31:31;;;;;;;71.13;40.00;;;4.40;99.90;;;;;;5025958;28;20211;-74
2022/11/30 05:33:56;;;;;;;70.20;37.00;;;4.40;99.90;;;;;;5024906;28;20275;-74
2022/11/30 05:36:22;;;;;;;66.97;35.63;;;4.40;99.90;;;;;;5023374;28;20182;-73
2022/11/30 05:38:48;;;;;;;73.73;39.50;;;4.40;99.90;;;;;;5028013;28;20187;-72
2022/11/30 05:41:14;;;;;;;76.20;39.23;;;4.40;99.90;;;;;;5024081;28;20222;-72
2022/11/30 05:43:40;;;;;;;71.07;37.73;;;4.40;99.90;;;;;;5025954;28;20303;-72
2022/11/30 05:46:07;;;;;;;68.67;36.33;;;4.50;99.90;;;;;;5025073;28;20784;-72
2022/11/30 05:48:33;;;;;;;69.37;36.83;;;4.50;99.90;;;;;;5022800;28;21101;-73
2022/11/30 05:51:09;;;;;;;70.60;37.37;;;4.50;99.90;;;;;;5026155;28;20183;-72
2022/11/30 05:53:35;;;;;;;78.77;39.80;;;4.50;99.90;;;;;;5025130;28;20220;-72
2022/11/30 05:56:06;;;;;;;71.77;37.07;;;4.40;99.90;;;;;;5020443;28;20219;-72
2022/11/30 05:58:32;;;;;;;78.50;40.60;;;4.50;99.90;;;;;;5027888;28;20297;-72
2022/11/30 06:00:58;;;;;;;70.43;37.87;;;4.40;99.90;;;;;;5020707;28;20212;-72
2022/11/30 06:03:24;;;;;;;70.33;37.93;;;4.50;99.90;;;;;;5025454;28;20179;-72
2022/11/30 06:05:50;;;;;;;73.00;37.83;;;4.50;99.90;;;;;;5026123;28;20220;-72
2022/11/30 06:08:17;;;;;;;75.50;38.83;;;4.40;99.90;;;;;;5024037;28;20236;-72
2022/11/30 06:10:42;;;;;;;75.17;38.53;;;4.50;99.90;;;;;;5022300;28;20583;-72
2022/11/30 06:13:08;;;;;;;76.97;39.83;;;4.40;99.90;;;;;;5024500;28;20323;-72
2022/11/30 06:15:36;;;;;;;68.00;37.27;;;4.40;99.90;;;;;;5027377;28;20215;-72
2022/11/30 06:18:02;;;;;;;69.77;35.97;;;4.50;99.90;;;;;;5026333;28;20721;-72
2022/11/30 06:20:28;;;;;;;70.50;36.73;;;4.40;99.90;;;;;;5025371;28;20293;-72
2022/11/30 06:22:54;;;;;;;68.73;36.13;;;4.40;99.90;;;;;;5027813;28;20228;-73
2022/11/30 06:25:20;;;;;;;68.87;38.27;;;4.40;99.90;;;;;;5028167;28;20309;-73
2022/11/30 06:27:45;;;;;;;71.33;38.90;;;4.50;99.90;;;;;;5023331;28;20205;-73
2022/11/30 06:30:11;;;;;;;72.07;37.27;;;4.40;99.90;;;;;;5023038;28;20182;-72
2022/11/30 06:32:37;;;;;;;72.33;38.60;;;4.50;99.90;;;;;;5033247;28;20265;-72
2022/11/30 06:35:03;;;;;;;66.77;37.00;;;4.40;99.90;;;;;;5025780;28;20306;-73
2022/11/30 06:37:28;;;;;;;63.90;35.67;;;4.40;99.90;;;;;;5024634;28;20208;-72
2022/11/30 06:39:54;;;;;;;71.57;37.10;;;4.40;99.90;;;;;;5028289;28;20588;-72
2022/11/30 06:42:20;;;;;;;70.23;38.10;;;4.40;99.90;;;;;;5027580;28;20183;-71
2022/11/30 06:44:47;;;;;;;64.03;36.07;;;4.50;99.90;;;;;;5027607;28;20250;-71
2022/11/30 06:47:12;;;;;;;72.23;37.77;;;4.50;99.90;;;;;;5028673;28;20212;-73
2022/11/30 06:49:38;;;;;;;67.53;36.03;;;4.50;99.90;;;;;;5024843;28;20245;-72
2022/11/30 06:52:04;;;;;;;72.33;36.17;;;4.50;99.90;;;;;;5029145;28;20589;-72
2022/11/30 06:54:29;;;;;;;69.17;35.70;;;4.40;99.90;;;;;;5031980;28;20215;-72
2022/11/30 06:56:56;;;;;;;65.53;34.87;;;4.50;99.90;;;;;;5021006;28;20650;-72
2022/11/30 06:59:22;;;;;;;72.70;36.47;;;4.50;99.90;;;;;;5031870;28;20212;-72
2022/11/30 07:01:48;;;;;;;62.07;35.23;;;4.50;99.90;;;;;;5029486;28;20217;-72
2022/11/30 07:04:13;;;;;;;67.10;36.93;;;4.50;99.90;;;;;;5022970;28;20216;-72
2022/11/30 07:06:39;;;;;;;76.77;37.50;;;4.40;99.90;;;;;;5030212;28;20215;-71
2022/11/30 07:09:05;;;;;;;68.70;35.50;;;4.40;99.90;;;;;;5025852;28;20205;-73
2022/11/30 07:11:32;;;;;;;68.87;35.47;;;4.40;99.90;;;;;;5027192;28;20217;-72
2022/11/30 07:13:57;;;;;;;68.97;37.33;;;4.40;99.90;;;;;;5027484;28;20684;-72
2022/11/30 07:16:23;;;;;;;65.77;35.30;;;4.40;99.90;;;;;;5026772;28;20244;-72
2022/11/30 07:18:49;;;;;;;64.63;36.03;;;4.40;99.90;;;;;;5027661;28;20223;-72
2022/11/30 07:21:14;;;;;;;65.30;35.20;;;4.50;99.90;;;;;;5027771;28;20578;-73
2022/11/30 07:26:24;;;;;;;64.50;34.40;;;4.60;99.90;;;;;;5027921;28;20277;-72
2022/11/30 07:28:54;;;;;;;66.77;34.83;;;4.50;99.90;;;;;;5025359;28;20678;-73
2022/11/30 07:31:29;;;;;;;67.20;35.60;;;4.40;99.90;;;;;;5030846;28;20341;-72
2022/11/30 07:33:56;;;;;;;62.83;33.60;;;4.40;99.90;;;;;;5027011;28;20574;-74
2022/11/30 07:36:24;;;;;;;66.00;34.07;;;4.50;99.90;;;;;;5031722;28;20653;-72
2022/11/30 07:38:50;;;;;;;66.83;34.37;;;4.50;99.90;;;;;;5027903;28;20214;-72
2022/11/30 07:41:15;;;;;;;68.17;35.33;;;4.60;99.90;;;;;;5027630;28;20218;-71
2022/11/30 07:43:41;;;;;;;68.83;36.33;;;4.60;99.90;;;;;;5023603;28;20292;-72
2022/11/30 07:46:08;;;;;;;60.50;34.00;;;4.50;99.90;;;;;;5024594;28;20309;-72
2022/11/30 07:48:34;;;;;;;68.10;35.30;;;4.60;99.90;;;;;;5027208;28;20256;-71
2022/11/30 07:51:04;;;;;;;60.27;33.00;;;4.60;99.90;;;;;;5022665;28;20207;-72
2022/11/30 07:53:30;;;;;;;60.90;33.50;;;4.60;99.90;;;;;;5029410;28;20803;-72
2022/11/30 07:56:08;;;;;;;64.77;32.53;;;4.60;99.90;;;;;;5024310;28;20216;-72
2022/11/30 07:58:33;;;;;;;62.73;33.47;;;4.70;99.90;;;;;;5026238;28;20792;-72
2022/11/30 08:01:11;;;;;;;63.13;33.33;;;4.60;99.90;;;;;;5025509;28;20212;-72
2022/11/30 08:03:37;;;;;;;66.73;34.30;;;4.60;99.90;;;;;;5024291;28;20231;-71
2022/11/30 08:06:06;;;;;;;65.63;35.00;;;4.60;99.90;;;;;;5028531;28;20214;-74
2022/11/30 08:08:38;;;;;;;69.33;35.10;;;4.70;99.90;;;;;;5030520;28;20211;-72
2022/11/30 08:11:06;;;;;;;61.73;33.27;;;4.60;99.90;;;;;;5028871;28;20205;-71
2022/11/30 08:13:32;;;;;;;65.67;34.87;;;4.70;99.90;;;;;;5030620;28;20805;-72
2022/11/30 08:16:06;;;;;;;62.43;33.73;;;4.60;99.90;;;;;;5024415;28;20201;-72
2022/11/30 08:18:32;;;;;;;62.93;33.50;;;4.70;99.90;;;;;;5024533;28;20211;-73
2022/11/30 08:20:59;;;;;;;60.10;34.50;;;4.70;99.90;;;;;;5027287;28;20228;-75
2022/11/30 08:23:27;;;;;;;59.03;31.80;;;4.80;99.90;;;;;;5025276;28;20208;-73
2022/11/30 08:25:53;;;;;;;63.63;33.77;;;4.80;99.90;;;;;;5039602;22;20927;-72
2022/11/30 08:28:19;;;;;;;61.53;33.47;;;4.80;99.90;;;;;;5028482;28;20213;-73
2022/11/30 08:30:44;;;;;;;60.93;33.07;;;4.90;99.90;;;;;;5020842;28;20227;-72
2022/11/30 08:33:10;;;;;;;65.33;35.73;;;4.80;99.90;;;;;;5025436;28;20547;-72
2022/11/30 08:35:36;;;;;;;63.47;33.60;;;4.80;99.90;;;;;;5026393;28;20184;-72
2022/11/30 08:38:01;;;;;;;69.37;34.13;;;4.80;99.90;;;;;;5019477;28;20211;-74
2022/11/30 08:40:27;;;;;;;60.37;33.07;;;4.80;99.90;;;;;;5028997;28;20266;-71
2022/11/30 08:42:52;;;;;;;58.60;32.43;;;4.90;99.90;;;;;;5025465;28;20218;-72
2022/11/30 08:45:18;;;;;;;61.10;33.53;;;4.90;99.90;;;;;;5023310;28;20214;-73
2022/11/30 08:47:43;;;;;;;60.10;32.57;;;4.90;99.90;;;;;;5028478;28;20261;-72
2022/11/30 08:50:09;;;;;;;62.13;34.60;;;4.90;99.90;;;;;;5024072;28;20231;-73
2022/11/30 08:52:35;;;;;;;66.63;34.77;;;5.00;99.90;;;;;;5022481;28;20217;-72
2022/11/30 08:55:00;;;;;;;63.60;33.97;;;5.00;99.90;;;;;;5026028;28;20657;-74
2022/11/30 08:57:26;;;;;;;64.37;33.80;;;5.00;99.90;;;;;;5025069;28;20702;-71
2022/11/30 08:59:51;;;;;;;63.67;33.87;;;5.00;99.90;;;;;;5030654;28;20176;-72
2022/11/30 09:02:18;;;;;;;61.90;33.90;;;5.00;99.90;;;;;;5027051;28;20214;-73
2022/11/30 09:04:46;;;;;;;61.97;33.70;;;4.90;99.90;;;;;;5021344;28;20240;-72
2022/11/30 09:07:12;;;;;;;60.50;33.93;;;4.90;99.90;;;;;;5027925;28;20217;-72
2022/11/30 09:09:38;;;;;;;61.43;32.97;;;4.90;99.90;;;;;;5025043;28;20266;-73
2022/11/30 09:12:04;;;;;;;65.30;34.30;;;4.90;99.90;;;;;;5021942;28;20192;-72
2022/11/30 09:14:30;;;;;;;63.70;32.13;;;5.00;99.90;;;;;;5028309;28;20219;-72
2022/11/30 09:16:55;;;;;;;68.47;34.57;;;4.90;99.90;;;;;;5026430;28;20224;-72
2022/11/30 09:19:21;;;;;;;63.67;33.70;;;4.90;99.90;;;;;;5022715;28;20212;-71
2022/11/30 09:21:46;;;;;;;59.60;33.33;;;4.90;99.90;;;;;;5026333;28;20226;-72
2022/11/30 09:24:12;;;;;;;58.93;32.80;;;5.00;99.90;;;;;;5023266;28;20197;-73
2022/11/30 09:26:38;;;;;;;62.73;34.40;;;5.00;99.90;;;;;;5027132;28;20261;-72
2022/11/30 09:29:04;;;;;;;60.97;32.27;;;5.00;99.90;;;;;;5024903;28;20228;-72
2022/11/30 09:31:29;;;;;;;59.30;31.80;;;5.00;99.90;;;;;;5022735;28;20598;-72
2022/11/30 09:33:57;;;;;;;54.60;31.57;;;5.10;99.90;;;;;;5021304;28;20236;-72
2022/11/30 09:36:26;;;;;;;64.23;32.40;;;5.10;99.90;;;;;;5026020;28;20569;-72
2022/11/30 09:38:52;;;;;;;62.50;34.13;;;5.20;99.90;;;;;;5020372;28;20196;-73
2022/11/30 09:42:01;;;;;;;57.67;32.50;;;5.20;99.90;;;;;;5024389;28;20219;-71
2022/11/30 09:44:46;;;;;;;61.67;32.17;;;5.20;99.90;;;;;;5023726;28;20629;-72
2022/11/30 09:47:32;;;;;;;55.20;30.17;;;5.10;99.90;;;;;;5028129;28;20234;-74
2022/11/30 09:50:09;;;;;;;56.00;31.87;;;5.10;99.90;;;;;;5021195;28;20596;-71
2022/11/30 09:52:40;;;;;;;54.60;28.93;;;5.00;99.90;;;;;;5023435;28;20330;-72
2022/11/30 09:55:14;;;;;;;61.73;31.37;;;5.10;99.90;;;;;;5026129;28;20220;-73
2022/11/30 09:57:44;;;;;;;53.87;29.93;;;5.10;99.90;;;;;;5022846;28;20227;-71
2022/11/30 10:00:21;;;;;;;60.77;30.87;;;5.20;99.90;;;;;;5024104;28;20660;-72
2022/11/30 10:02:49;;;;;;;55.00;31.37;;;5.20;99.90;;;;;;5024157;28;20183;-74
2022/11/30 10:05:44;;;;;;;61.03;32.40;;;5.30;99.90;;;;;;5022477;28;20216;-72
2022/11/30 10:08:34;;;;;;;59.00;33.33;;;5.30;99.90;;;;;;4968515;28;20214;-74
2022/11/30 10:11:32;;;;;;;57.23;32.17;;;5.30;99.90;;;;;;5020617;28;20213;-73
2022/11/30 10:14:19;;;;;;;57.70;32.70;;;5.40;99.90;;;;;;5013665;28;20250;-72
2022/11/30 10:16:44;;;;;;;54.13;31.70;;;5.50;99.90;;;;;;5024913;28;20590;-72
2022/11/30 10:19:37;;;;;;;61.73;32.20;;;5.50;99.90;;;;;;5022516;28;20211;-74
2022/11/30 10:22:22;;;;;;;55.20;30.87;;;5.50;99.90;;;;;;5024781;28;20432;-72
2022/11/30 10:25:00;;;;;;;55.67;31.43;;;5.60;99.90;;;;;;5022547;28;20269;-73
2022/11/30 10:27:47;;;;;;;64.17;35.20;;;5.60;99.90;;;;;;5025836;28;20219;-73
2022/11/30 10:30:16;;;;;;;56.30;32.43;;;5.60;99.90;;;;;;5024198;28;20717;-73
2022/11/30 10:32:46;;;;;;;58.20;33.70;;;5.60;99.90;;;;;;5020589;28;20180;-73
2022/11/30 10:35:17;;;;;;;57.60;31.50;;;5.60;99.90;;;;;;5024913;28;20201;-75
2022/11/30 10:37:44;;;;;;;58.77;32.13;;;5.60;99.90;;;;;;5023050;28;20204;-73
2022/11/30 10:40:22;;;;;;;54.60;31.83;;;5.60;99.90;;;;;;5018198;28;20200;-76
2022/11/30 10:43:15;;;;;;;60.97;32.80;;;5.70;99.90;;;;;;5023773;28;20207;-73
2022/11/30 10:45:48;;;;;;;65.30;32.70;;;5.70;99.90;;;;;;4986920;28;20216;-73
2022/11/30 10:48:16;;;;;;;60.67;33.70;;;5.70;99.90;;;;;;5022953;28;20184;-74
2022/11/30 10:50:42;;;;;;;59.53;30.80;;;5.70;99.90;;;;;;5022567;28;20273;-74
2022/11/30 10:53:10;;;;;;;55.97;32.07;;;5.60;99.90;;;;;;5021939;28;20411;-73
2022/11/30 10:55:44;;;;;;;57.20;31.87;;;5.60;99.90;;;;;;5027048;28;20651;-73
2022/11/30 10:58:18;;;;;;;60.67;33.80;;;5.70;99.90;;;;;;5021487;28;20216;-73
2022/11/30 11:00:53;;;;;;;66.50;34.33;;;5.70;99.90;;;;;;5020417;28;20212;-73
2022/11/30 11:03:24;;;;;;;56.40;31.27;;;5.70;99.90;;;;;;5023428;28;20661;-73
2022/11/30 11:06:21;;;;;;;58.17;31.97;;;5.70;99.90;;;;;;5019269;28;20260;-74
2022/11/30 11:08:48;;;;;;;59.20;31.97;;;5.70;99.90;;;;;;5017198;28;20220;-73
2022/11/30 11:11:34;;;;;;;60.00;34.67;;;5.80;99.90;;;;;;5025112;28;20219;-73
2022/11/30 11:14:18;;;;;;;58.70;33.73;;;5.70;99.90;;;;;;5023220;28;20714;-71
2022/11/30 11:16:52;;;;;;;56.73;32.17;;;5.60;99.90;;;;;;5027473;28;20601;-74
2022/11/30 11:19:29;;;;;;;57.20;32.67;;;5.80;99.90;;;;;;5026418;28;20264;-73
2022/11/30 11:21:55;;;;;;;59.70;33.83;;;5.80;99.90;;;;;;5027843;28;20200;-72
2022/11/30 11:24:26;;;;;;;60.37;32.77;;;5.80;99.90;;;;;;5028188;28;20246;-74
2022/11/30 11:26:53;;;;;;;58.77;33.60;;;5.80;99.90;;;;;;5021135;28;20344;-73
2022/11/30 11:29:30;;;;;;;59.97;34.80;;;5.80;99.90;;;;;;5030250;28;20296;-73
2022/11/30 11:32:07;;;;;;;61.80;34.73;;;5.90;99.90;;;;;;5024633;28;20329;-74
2022/11/30 11:34:35;;;;;;;59.57;32.73;;;5.80;99.90;;;;;;5025719;28;20209;-73
2022/11/30 11:37:21;;;;;;;69.50;34.57;;;5.90;99.90;;;;;;5025974;28;20753;-73
2022/11/30 11:40:04;;;;;;;59.93;34.43;;;5.90;99.90;;;;;;5029963;28;20239;-74
2022/11/30 11:42:51;;;;;;;61.17;34.20;;;5.90;99.90;;;;;;5022009;28;20208;-75
2022/11/30 11:45:35;;;;;;;60.50;32.73;;;5.90;99.90;;;;;;5028325;28;20211;-73
2022/11/30 11:48:19;;;;;;;62.97;33.27;;;5.90;99.90;;;;;;5027660;28;20165;-74
2022/11/30 11:50:57;;;;;;;64.37;35.13;;;6.00;99.90;;;;;;5031033;28;20200;-74
2022/11/30 11:53:47;;;;;;;60.47;35.27;;;6.00;99.90;;;;;;5029935;28;20243;-73
2022/11/30 11:56:23;;;;;;;62.30;34.63;;;5.90;99.90;;;;;;5021254;28;20208;-73
2022/11/30 11:59:01;;;;;;;60.90;34.33;;;5.80;99.90;;;;;;5023720;28;20204;-74
2022/11/30 12:01:56;;;;;;;60.63;34.73;;;5.80;99.90;;;;;;5028597;28;20227;-74
2022/11/30 12:04:50;;;;;;;64.77;35.80;;;5.80;99.90;;;;;;5024596;28;20691;-73
2022/11/30 12:07:43;;;;;;;65.70;36.00;;;5.80;99.90;;;;;;5024762;28;20228;-73
2022/11/30 12:10:45;;;;;;;69.93;35.27;;;5.80;99.90;;;;;;5030122;28;20231;-72
2022/11/30 12:13:18;;;;;;;63.77;33.80;;;5.80;99.90;;;;;;5024465;28;20270;-73
2022/11/30 12:16:18;;;;;;;60.57;34.53;;;5.90;99.90;;;;;;5027257;28;20837;-71
2022/11/30 12:19:05;;;;;;;62.87;36.03;;;5.90;99.90;;;;;;4984712;28;20241;-72
2022/11/30 12:21:57;;;;;;;67.70;36.23;;;5.90;99.90;;;;;;5026032;28;20220;-72
2022/11/30 12:24:44;;;;;;;63.63;34.40;;;5.90;99.90;;;;;;5029853;28;20216;-72
2022/11/30 12:27:28;;;;;;;62.47;34.10;;;5.90;99.90;;;;;;5026565;28;20216;-72
2022/11/30 12:30:21;;;;;;;65.67;35.57;;;5.80;99.90;;;;;;5026350;28;20195;-72
2022/11/30 12:33:14;;;;;;;62.30;34.83;;;5.80;99.90;;;;;;5024323;28;20243;-72
2022/11/30 12:35:46;;;;;;;68.80;37.53;;;6.00;99.90;;;;;;5024703;28;20212;-73
2022/11/30 12:38:36;;;;;;;63.30;34.30;;;5.90;99.90;;;;;;5021241;28;20220;-71
2022/11/30 12:41:45;;;;;;;63.60;34.10;;;5.90;99.90;;;;;;5023392;28;20707;-72
2022/11/30 12:44:16;;;;;;;66.33;36.10;;;5.80;99.90;;;;;;4970206;28;20206;-78
2022/11/30 12:46:44;;;;;;;69.03;36.13;;;5.80;99.90;;;;;;4970889;28;20728;-76
2022/11/30 12:49:15;;;;;;;67.13;36.13;;;5.80;99.90;;;;;;5001982;28;20211;-74
2022/11/30 12:51:58;;;;;;;72.63;36.67;;;5.90;99.90;;;;;;5022609;28;20295;-73
2022/11/30 12:54:58;;;;;;;67.57;37.63;;;5.90;99.90;;;;;;5024390;28;20262;-73